sensor_id;sensor_type;location;lat;lon;timestamp;P1;durP1;ratioP1;P2;durP2;ratioP2
31754;SDS011;18325;52.018;4.726;2023-05-10T00:02:20;24.63;;;12.13;;
31754;SDS011;18325;52.018;4.726;2023-05-10T00:04:46;23.50;;;12.23;;
31754;SDS011;18325;52.018;4.726;2023-05-10T00:07:12;19.63;;;11.07;;
31754;SDS011;18325;52.018;4.726;2023-05-10T00:09:39;18.73;;;10.17;;
31754;SDS011;18325;52.018;4.726;2023-05-10T00:12:07;24.10;;;12.33;;
31754;SDS011;18325;52.018;4.726;2023-05-10T00:14:33;23.40;;;11.87;;
31754;SDS011;18325;52.018;4.726;2023-05-10T00:17:00;24.23;;;12.27;;
31754;SDS011;18325;52.018;4.726;2023-05-10T00:19:26;20.60;;;11.73;;
31754;SDS011;18325;52.018;4.726;2023-05-10T00:21:53;24.17;;;12.50;;
31754;SDS011;18325;52.018;4.726;2023-05-10T00:24:19;24.57;;;11.57;;
31754;SDS011;18325;52.018;4.726;2023-05-10T00:26:45;28.40;;;11.87;;
31754;SDS011;18325;52.018;4.726;2023-05-10T00:29:13;25.73;;;12.83;;
31754;SDS011;18325;52.018;4.726;2023-05-10T00:31:40;25.63;;;12.43;;
31754;SDS011;18325;52.018;4.726;2023-05-10T00:34:06;24.17;;;12.37;;
31754;SDS011;18325;52.018;4.726;2023-05-10T00:36:32;26.47;;;12.83;;
31754;SDS011;18325;52.018;4.726;2023-05-10T00:38:59;26.87;;;13.77;;
31754;SDS011;18325;52.018;4.726;2023-05-10T00:41:25;22.17;;;11.80;;
31754;SDS011;18325;52.018;4.726;2023-05-10T00:43:52;22.20;;;11.53;;
31754;SDS011;18325;52.018;4.726;2023-05-10T00:46:20;21.87;;;11.17;;
31754;SDS011;18325;52.018;4.726;2023-05-10T00:48:46;23.53;;;11.23;;
31754;SDS011;18325;52.018;4.726;2023-05-10T00:51:13;22.53;;;11.57;;
31754;SDS011;18325;52.018;4.726;2023-05-10T00:53:40;27.93;;;12.97;;
31754;SDS011;18325;52.018;4.726;2023-05-10T00:56:06;23.70;;;12.67;;
31754;SDS011;18325;52.018;4.726;2023-05-10T00:58:33;24.50;;;12.17;;
31754;SDS011;18325;52.018;4.726;2023-05-10T01:00:59;25.63;;;12.50;;
31754;SDS011;18325;52.018;4.726;2023-05-10T01:03:27;29.67;;;13.00;;
31754;SDS011;18325;52.018;4.726;2023-05-10T01:05:54;25.17;;;13.70;;
31754;SDS011;18325;52.018;4.726;2023-05-10T01:08:21;27.20;;;12.67;;
31754;SDS011;18325;52.018;4.726;2023-05-10T01:10:47;28.87;;;15.07;;
31754;SDS011;18325;52.018;4.726;2023-05-10T01:13:16;26.33;;;13.13;;
31754;SDS011;18325;52.018;4.726;2023-05-10T01:15:45;33.40;;;16.63;;
31754;SDS011;18325;52.018;4.726;2023-05-10T01:18:12;33.10;;;15.70;;
31754;SDS011;18325;52.018;4.726;2023-05-10T01:20:41;34.10;;;16.97;;
31754;SDS011;18325;52.018;4.726;2023-05-10T01:23:11;31.93;;;15.43;;
31754;SDS011;18325;52.018;4.726;2023-05-10T01:29:19;36.47;;;16.83;;
31754;SDS011;18325;52.018;4.726;2023-05-10T01:32:08;35.93;;;16.37;;
31754;SDS011;18325;52.018;4.726;2023-05-10T01:34:42;41.30;;;17.07;;
31754;SDS011;18325;52.018;4.726;2023-05-10T01:37:13;33.07;;;16.47;;
31754;SDS011;18325;52.018;4.726;2023-05-10T01:39:43;35.03;;;16.30;;
31754;SDS011;18325;52.018;4.726;2023-05-10T01:42:14;35.17;;;17.60;;
31754;SDS011;18325;52.018;4.726;2023-05-10T01:44:45;37.60;;;16.87;;
31754;SDS011;18325;52.018;4.726;2023-05-10T01:47:17;36.03;;;18.03;;
31754;SDS011;18325;52.018;4.726;2023-05-10T01:49:47;35.33;;;16.90;;
31754;SDS011;18325;52.018;4.726;2023-05-10T01:52:16;37.93;;;16.60;;
31754;SDS011;18325;52.018;4.726;2023-05-10T01:54:48;38.67;;;17.73;;
31754;SDS011;18325;52.018;4.726;2023-05-10T01:57:16;36.87;;;16.93;;
31754;SDS011;18325;52.018;4.726;2023-05-10T01:59:43;40.57;;;17.67;;
31754;SDS011;18325;52.018;4.726;2023-05-10T02:02:11;36.47;;;16.77;;
31754;SDS011;18325;52.018;4.726;2023-05-10T02:04:39;37.17;;;16.03;;
31754;SDS011;18325;52.018;4.726;2023-05-10T02:07:06;46.43;;;16.83;;
31754;SDS011;18325;52.018;4.726;2023-05-10T02:09:34;32.83;;;16.37;;
31754;SDS011;18325;52.018;4.726;2023-05-10T02:12:01;37.77;;;17.33;;
31754;SDS011;18325;52.018;4.726;2023-05-10T02:14:28;44.70;;;18.00;;
31754;SDS011;18325;52.018;4.726;2023-05-10T02:16:56;42.20;;;16.97;;
31754;SDS011;18325;52.018;4.726;2023-05-10T02:19:24;38.93;;;16.67;;
31754;SDS011;18325;52.018;4.726;2023-05-10T02:21:52;36.63;;;16.10;;
31754;SDS011;18325;52.018;4.726;2023-05-10T02:24:21;40.33;;;18.47;;
31754;SDS011;18325;52.018;4.726;2023-05-10T02:26:48;39.17;;;17.00;;
31754;SDS011;18325;52.018;4.726;2023-05-10T02:29:15;38.13;;;17.63;;
31754;SDS011;18325;52.018;4.726;2023-05-10T02:31:42;44.70;;;18.80;;
31754;SDS011;18325;52.018;4.726;2023-05-10T02:34:09;41.60;;;17.73;;
31754;SDS011;18325;52.018;4.726;2023-05-10T02:36:36;35.47;;;16.97;;
31754;SDS011;18325;52.018;4.726;2023-05-10T02:39:05;39.20;;;17.93;;
31754;SDS011;18325;52.018;4.726;2023-05-10T02:41:35;37.63;;;15.97;;
31754;SDS011;18325;52.018;4.726;2023-05-10T02:44:01;35.53;;;16.77;;
31754;SDS011;18325;52.018;4.726;2023-05-10T02:46:28;41.33;;;16.80;;
31754;SDS011;18325;52.018;4.726;2023-05-10T02:48:55;35.73;;;16.53;;
31754;SDS011;18325;52.018;4.726;2023-05-10T02:51:21;42.30;;;15.93;;
31754;SDS011;18325;52.018;4.726;2023-05-10T02:53:50;36.97;;;17.87;;
31754;SDS011;18325;52.018;4.726;2023-05-10T02:56:23;36.13;;;17.33;;
31754;SDS011;18325;52.018;4.726;2023-05-10T02:58:52;34.33;;;16.67;;
31754;SDS011;18325;52.018;4.726;2023-05-10T03:01:18;44.87;;;18.63;;
31754;SDS011;18325;52.018;4.726;2023-05-10T03:03:45;40.03;;;17.73;;
31754;SDS011;18325;52.018;4.726;2023-05-10T03:06:11;40.83;;;18.27;;
31754;SDS011;18325;52.018;4.726;2023-05-10T03:08:37;37.27;;;17.37;;
31754;SDS011;18325;52.018;4.726;2023-05-10T03:11:09;44.43;;;17.60;;
31754;SDS011;18325;52.018;4.726;2023-05-10T03:13:46;39.90;;;17.77;;
31754;SDS011;18325;52.018;4.726;2023-05-10T03:16:18;39.37;;;17.77;;
31754;SDS011;18325;52.018;4.726;2023-05-10T03:19:01;43.47;;;19.00;;
31754;SDS011;18325;52.018;4.726;2023-05-10T03:21:31;35.73;;;17.40;;
31754;SDS011;18325;52.018;4.726;2023-05-10T03:23:59;42.70;;;18.10;;
31754;SDS011;18325;52.018;4.726;2023-05-10T03:26:28;40.27;;;19.03;;
31754;SDS011;18325;52.018;4.726;2023-05-10T03:28:56;39.50;;;17.33;;
31754;SDS011;18325;52.018;4.726;2023-05-10T03:31:24;36.60;;;17.33;;
31754;SDS011;18325;52.018;4.726;2023-05-10T03:33:51;37.73;;;18.23;;
31754;SDS011;18325;52.018;4.726;2023-05-10T03:36:18;37.70;;;18.80;;
31754;SDS011;18325;52.018;4.726;2023-05-10T03:38:45;35.10;;;17.30;;
31754;SDS011;18325;52.018;4.726;2023-05-10T03:41:12;33.87;;;17.13;;
31754;SDS011;18325;52.018;4.726;2023-05-10T03:43:38;41.23;;;19.53;;
31754;SDS011;18325;52.018;4.726;2023-05-10T03:46:07;38.60;;;19.20;;
31754;SDS011;18325;52.018;4.726;2023-05-10T03:48:34;38.53;;;18.00;;
31754;SDS011;18325;52.018;4.726;2023-05-10T03:51:00;39.27;;;18.70;;
31754;SDS011;18325;52.018;4.726;2023-05-10T03:53:27;41.03;;;18.57;;
31754;SDS011;18325;52.018;4.726;2023-05-10T03:55:53;39.80;;;19.17;;
31754;SDS011;18325;52.018;4.726;2023-05-10T03:58:19;41.67;;;18.57;;
31754;SDS011;18325;52.018;4.726;2023-05-10T04:00:46;41.70;;;18.57;;
31754;SDS011;18325;52.018;4.726;2023-05-10T04:03:14;43.20;;;19.63;;
31754;SDS011;18325;52.018;4.726;2023-05-10T04:05:41;45.83;;;20.13;;
31754;SDS011;18325;52.018;4.726;2023-05-10T04:08:07;42.27;;;20.43;;
31754;SDS011;18325;52.018;4.726;2023-05-10T04:10:34;41.20;;;20.90;;
31754;SDS011;18325;52.018;4.726;2023-05-10T04:13:00;51.13;;;20.47;;
31754;SDS011;18325;52.018;4.726;2023-05-10T04:15:27;44.40;;;21.23;;
31754;SDS011;18325;52.018;4.726;2023-05-10T04:17:53;43.27;;;21.73;;
31754;SDS011;18325;52.018;4.726;2023-05-10T04:20:21;43.27;;;21.50;;
31754;SDS011;18325;52.018;4.726;2023-05-10T04:22:47;41.60;;;22.73;;
31754;SDS011;18325;52.018;4.726;2023-05-10T04:25:14;46.33;;;23.57;;
31754;SDS011;18325;52.018;4.726;2023-05-10T04:27:40;41.70;;;20.87;;
31754;SDS011;18325;52.018;4.726;2023-05-10T04:30:07;38.97;;;19.63;;
31754;SDS011;18325;52.018;4.726;2023-05-10T04:32:34;53.90;;;24.40;;
31754;SDS011;18325;52.018;4.726;2023-05-10T04:35:01;46.27;;;22.93;;
31754;SDS011;18325;52.018;4.726;2023-05-10T04:37:29;44.80;;;23.43;;
31754;SDS011;18325;52.018;4.726;2023-05-10T04:39:56;46.57;;;24.27;;
31754;SDS011;18325;52.018;4.726;2023-05-10T04:42:22;51.93;;;24.53;;
31754;SDS011;18325;52.018;4.726;2023-05-10T04:44:49;52.93;;;25.37;;
31754;SDS011;18325;52.018;4.726;2023-05-10T04:47:16;45.67;;;23.43;;
31754;SDS011;18325;52.018;4.726;2023-05-10T04:49:43;45.60;;;24.27;;
31754;SDS011;18325;52.018;4.726;2023-05-10T04:52:09;51.53;;;24.77;;
31754;SDS011;18325;52.018;4.726;2023-05-10T04:54:37;50.27;;;24.80;;
31754;SDS011;18325;52.018;4.726;2023-05-10T04:57:04;42.80;;;23.00;;
31754;SDS011;18325;52.018;4.726;2023-05-10T04:59:30;40.17;;;20.70;;
31754;SDS011;18325;52.018;4.726;2023-05-10T05:01:56;36.93;;;18.80;;
31754;SDS011;18325;52.018;4.726;2023-05-10T05:04:23;30.00;;;17.40;;
31754;SDS011;18325;52.018;4.726;2023-05-10T05:06:50;39.13;;;21.03;;
31754;SDS011;18325;52.018;4.726;2023-05-10T05:09:16;42.53;;;21.77;;
31754;SDS011;18325;52.018;4.726;2023-05-10T05:11:44;34.80;;;17.63;;
31754;SDS011;18325;52.018;4.726;2023-05-10T05:14:10;32.80;;;16.67;;
31754;SDS011;18325;52.018;4.726;2023-05-10T05:16:37;32.03;;;17.07;;
31754;SDS011;18325;52.018;4.726;2023-05-10T05:19:03;31.80;;;15.83;;
31754;SDS011;18325;52.018;4.726;2023-05-10T05:21:30;28.70;;;15.43;;
31754;SDS011;18325;52.018;4.726;2023-05-10T05:23:57;33.47;;;15.50;;
31754;SDS011;18325;52.018;4.726;2023-05-10T05:26:23;32.60;;;16.10;;
31754;SDS011;18325;52.018;4.726;2023-05-10T05:28:51;30.73;;;15.13;;
31754;SDS011;18325;52.018;4.726;2023-05-10T05:31:19;32.77;;;15.97;;
31754;SDS011;18325;52.018;4.726;2023-05-10T05:33:45;33.83;;;15.93;;
31754;SDS011;18325;52.018;4.726;2023-05-10T05:36:12;33.20;;;15.37;;
31754;SDS011;18325;52.018;4.726;2023-05-10T05:38:38;29.73;;;14.97;;
31754;SDS011;18325;52.018;4.726;2023-05-10T05:41:05;27.23;;;13.77;;
31754;SDS011;18325;52.018;4.726;2023-05-10T05:43:31;23.20;;;11.93;;
31754;SDS011;18325;52.018;4.726;2023-05-10T05:45:59;27.40;;;11.93;;
31754;SDS011;18325;52.018;4.726;2023-05-10T05:48:25;24.80;;;12.30;;
31754;SDS011;18325;52.018;4.726;2023-05-10T05:50:54;26.83;;;11.80;;
31754;SDS011;18325;52.018;4.726;2023-05-10T05:53:21;23.33;;;11.37;;
31754;SDS011;18325;52.018;4.726;2023-05-10T05:55:51;22.57;;;9.97;;
31754;SDS011;18325;52.018;4.726;2023-05-10T05:58:18;23.63;;;10.47;;
31754;SDS011;18325;52.018;4.726;2023-05-10T06:00:45;30.77;;;14.00;;
31754;SDS011;18325;52.018;4.726;2023-05-10T06:03:13;23.87;;;10.60;;
31754;SDS011;18325;52.018;4.726;2023-05-10T06:05:39;24.23;;;11.03;;
31754;SDS011;18325;52.018;4.726;2023-05-10T06:08:06;27.10;;;11.47;;
31754;SDS011;18325;52.018;4.726;2023-05-10T06:10:32;23.93;;;11.67;;
31754;SDS011;18325;52.018;4.726;2023-05-10T06:12:58;26.00;;;12.13;;
31754;SDS011;18325;52.018;4.726;2023-05-10T06:15:25;21.87;;;11.20;;
31754;SDS011;18325;52.018;4.726;2023-05-10T06:17:51;21.60;;;10.23;;
31754;SDS011;18325;52.018;4.726;2023-05-10T06:20:19;27.97;;;11.13;;
31754;SDS011;18325;52.018;4.726;2023-05-10T06:22:45;21.40;;;9.70;;
31754;SDS011;18325;52.018;4.726;2023-05-10T06:25:12;24.47;;;10.17;;
31754;SDS011;18325;52.018;4.726;2023-05-10T06:27:39;23.80;;;9.33;;
31754;SDS011;18325;52.018;4.726;2023-05-10T06:30:06;16.40;;;7.57;;
31754;SDS011;18325;52.018;4.726;2023-05-10T06:32:33;17.30;;;8.33;;
31754;SDS011;18325;52.018;4.726;2023-05-10T06:35:00;16.57;;;7.67;;
31754;SDS011;18325;52.018;4.726;2023-05-10T06:37:28;12.83;;;6.83;;
31754;SDS011;18325;52.018;4.726;2023-05-10T06:39:54;14.20;;;5.80;;
31754;SDS011;18325;52.018;4.726;2023-05-10T06:42:21;13.17;;;7.27;;
31754;SDS011;18325;52.018;4.726;2023-05-10T06:44:48;11.43;;;5.57;;
31754;SDS011;18325;52.018;4.726;2023-05-10T06:47:15;12.67;;;6.17;;
31754;SDS011;18325;52.018;4.726;2023-05-10T06:49:42;12.60;;;6.20;;
31754;SDS011;18325;52.018;4.726;2023-05-10T06:52:08;11.17;;;6.30;;
31754;SDS011;18325;52.018;4.726;2023-05-10T06:54:36;8.97;;;5.67;;
31754;SDS011;18325;52.018;4.726;2023-05-10T06:57:02;12.77;;;6.07;;
31754;SDS011;18325;52.018;4.726;2023-05-10T06:59:29;10.00;;;5.30;;
31754;SDS011;18325;52.018;4.726;2023-05-10T07:01:55;9.90;;;5.30;;
31754;SDS011;18325;52.018;4.726;2023-05-10T07:04:22;8.43;;;5.03;;
31754;SDS011;18325;52.018;4.726;2023-05-10T07:06:48;9.90;;;4.77;;
31754;SDS011;18325;52.018;4.726;2023-05-10T07:09:15;8.80;;;5.00;;
31754;SDS011;18325;52.018;4.726;2023-05-10T07:11:43;7.43;;;4.77;;
31754;SDS011;18325;52.018;4.726;2023-05-10T07:14:09;9.17;;;5.33;;
31754;SDS011;18325;52.018;4.726;2023-05-10T07:16:36;10.43;;;5.47;;
31754;SDS011;18325;52.018;4.726;2023-05-10T07:19:03;8.03;;;5.13;;
31754;SDS011;18325;52.018;4.726;2023-05-10T07:21:30;7.83;;;4.43;;
31754;SDS011;18325;52.018;4.726;2023-05-10T07:23:57;8.33;;;4.67;;
31754;SDS011;18325;52.018;4.726;2023-05-10T07:26:23;7.77;;;4.27;;
31754;SDS011;18325;52.018;4.726;2023-05-10T07:28:51;7.73;;;4.40;;
31754;SDS011;18325;52.018;4.726;2023-05-10T07:31:17;7.60;;;4.40;;
31754;SDS011;18325;52.018;4.726;2023-05-10T07:33:44;5.97;;;3.87;;
31754;SDS011;18325;52.018;4.726;2023-05-10T07:36:11;5.57;;;3.53;;
31754;SDS011;18325;52.018;4.726;2023-05-10T07:38:37;6.77;;;3.80;;
31754;SDS011;18325;52.018;4.726;2023-05-10T07:41:04;4.70;;;2.77;;
31754;SDS011;18325;52.018;4.726;2023-05-10T07:43:31;5.70;;;2.97;;
31754;SDS011;18325;52.018;4.726;2023-05-10T07:45:58;5.80;;;3.50;;
31754;SDS011;18325;52.018;4.726;2023-05-10T07:48:25;5.80;;;3.33;;
31754;SDS011;18325;52.018;4.726;2023-05-10T07:50:52;5.10;;;3.70;;
31754;SDS011;18325;52.018;4.726;2023-05-10T07:53:18;3.60;;;2.70;;
31754;SDS011;18325;52.018;4.726;2023-05-10T07:55:46;5.37;;;2.70;;
31754;SDS011;18325;52.018;4.726;2023-05-10T07:58:16;5.13;;;3.33;;
31754;SDS011;18325;52.018;4.726;2023-05-10T08:00:42;5.17;;;3.10;;
31754;SDS011;18325;52.018;4.726;2023-05-10T08:03:10;5.63;;;3.53;;
31754;SDS011;18325;52.018;4.726;2023-05-10T08:05:37;6.03;;;3.60;;
31754;SDS011;18325;52.018;4.726;2023-05-10T08:08:03;6.03;;;2.87;;
31754;SDS011;18325;52.018;4.726;2023-05-10T08:10:30;4.77;;;3.13;;
31754;SDS011;18325;52.018;4.726;2023-05-10T08:12:56;5.07;;;2.93;;
31754;SDS011;18325;52.018;4.726;2023-05-10T08:15:23;8.00;;;4.13;;
31754;SDS011;18325;52.018;4.726;2023-05-10T08:17:50;6.60;;;3.47;;
31754;SDS011;18325;52.018;4.726;2023-05-10T08:20:18;7.87;;;3.83;;
31754;SDS011;18325;52.018;4.726;2023-05-10T08:22:45;7.50;;;3.27;;
31754;SDS011;18325;52.018;4.726;2023-05-10T08:25:12;7.93;;;4.07;;
31754;SDS011;18325;52.018;4.726;2023-05-10T08:27:38;5.77;;;3.43;;
31754;SDS011;18325;52.018;4.726;2023-05-10T08:30:05;8.10;;;4.17;;
31754;SDS011;18325;52.018;4.726;2023-05-10T08:32:33;5.57;;;3.20;;
31754;SDS011;18325;52.018;4.726;2023-05-10T08:34:59;5.03;;;3.23;;
31754;SDS011;18325;52.018;4.726;2023-05-10T08:37:27;5.23;;;3.43;;
31754;SDS011;18325;52.018;4.726;2023-05-10T08:39:57;6.77;;;4.03;;
31754;SDS011;18325;52.018;4.726;2023-05-10T08:42:23;6.43;;;3.50;;
31754;SDS011;18325;52.018;4.726;2023-05-10T08:44:52;5.53;;;3.73;;
31754;SDS011;18325;52.018;4.726;2023-05-10T08:47:19;7.43;;;4.07;;
31754;SDS011;18325;52.018;4.726;2023-05-10T08:49:47;8.80;;;4.53;;
31754;SDS011;18325;52.018;4.726;2023-05-10T08:52:13;6.30;;;3.73;;
31754;SDS011;18325;52.018;4.726;2023-05-10T08:54:42;5.40;;;3.37;;
31754;SDS011;18325;52.018;4.726;2023-05-10T08:57:11;7.37;;;3.60;;
31754;SDS011;18325;52.018;4.726;2023-05-10T08:59:37;7.23;;;4.17;;
31754;SDS011;18325;52.018;4.726;2023-05-10T09:02:04;5.97;;;3.47;;
31754;SDS011;18325;52.018;4.726;2023-05-10T09:04:31;6.97;;;4.13;;
31754;SDS011;18325;52.018;4.726;2023-05-10T09:06:57;5.17;;;3.50;;
31754;SDS011;18325;52.018;4.726;2023-05-10T09:09:24;7.40;;;3.63;;
31754;SDS011;18325;52.018;4.726;2023-05-10T09:11:52;7.27;;;3.87;;
31754;SDS011;18325;52.018;4.726;2023-05-10T09:14:19;6.47;;;3.93;;
31754;SDS011;18325;52.018;4.726;2023-05-10T09:16:46;7.13;;;4.13;;
31754;SDS011;18325;52.018;4.726;2023-05-10T09:19:13;5.87;;;4.03;;
31754;SDS011;18325;52.018;4.726;2023-05-10T09:21:39;5.73;;;3.60;;
31754;SDS011;18325;52.018;4.726;2023-05-10T09:24:06;5.33;;;3.47;;
31754;SDS011;18325;52.018;4.726;2023-05-10T09:26:33;6.63;;;3.63;;
31754;SDS011;18325;52.018;4.726;2023-05-10T09:29:02;6.40;;;4.27;;
31754;SDS011;18325;52.018;4.726;2023-05-10T09:31:45;6.53;;;3.77;;
31754;SDS011;18325;52.018;4.726;2023-05-10T09:34:15;7.23;;;4.20;;
31754;SDS011;18325;52.018;4.726;2023-05-10T09:36:53;4.67;;;3.63;;
31754;SDS011;18325;52.018;4.726;2023-05-10T09:39:20;8.70;;;4.13;;
31754;SDS011;18325;52.018;4.726;2023-05-10T09:41:47;9.97;;;4.50;;
31754;SDS011;18325;52.018;4.726;2023-05-10T09:44:17;10.70;;;4.43;;
31754;SDS011;18325;52.018;4.726;2023-05-10T09:46:48;7.17;;;4.43;;
31754;SDS011;18325;52.018;4.726;2023-05-10T09:49:15;8.13;;;4.40;;
31754;SDS011;18325;52.018;4.726;2023-05-10T09:51:42;6.17;;;4.13;;
31754;SDS011;18325;52.018;4.726;2023-05-10T09:54:09;6.67;;;3.90;;
31754;SDS011;18325;52.018;4.726;2023-05-10T09:56:36;8.37;;;3.97;;
31754;SDS011;18325;52.018;4.726;2023-05-10T09:59:05;6.17;;;3.93;;
31754;SDS011;18325;52.018;4.726;2023-05-10T10:01:33;7.00;;;4.13;;
31754;SDS011;18325;52.018;4.726;2023-05-10T10:04:01;9.43;;;3.67;;
31754;SDS011;18325;52.018;4.726;2023-05-10T10:06:29;7.27;;;4.57;;
31754;SDS011;18325;52.018;4.726;2023-05-10T10:08:55;6.43;;;4.50;;
31754;SDS011;18325;52.018;4.726;2023-05-10T10:11:22;7.47;;;3.83;;
31754;SDS011;18325;52.018;4.726;2023-05-10T10:13:49;9.03;;;4.00;;
31754;SDS011;18325;52.018;4.726;2023-05-10T10:16:16;6.00;;;3.57;;
31754;SDS011;18325;52.018;4.726;2023-05-10T10:18:44;4.87;;;3.33;;
31754;SDS011;18325;52.018;4.726;2023-05-10T10:21:10;5.37;;;3.90;;
31754;SDS011;18325;52.018;4.726;2023-05-10T10:23:37;7.37;;;3.87;;
31754;SDS011;18325;52.018;4.726;2023-05-10T10:26:03;6.27;;;4.07;;
31754;SDS011;18325;52.018;4.726;2023-05-10T10:28:32;6.80;;;3.70;;
31754;SDS011;18325;52.018;4.726;2023-05-10T10:31:11;6.23;;;3.43;;
31754;SDS011;18325;52.018;4.726;2023-05-10T10:33:49;7.63;;;4.27;;
31754;SDS011;18325;52.018;4.726;2023-05-10T10:36:20;3.93;;;3.30;;
31754;SDS011;18325;52.018;4.726;2023-05-10T10:38:57;7.20;;;5.07;;
31754;SDS011;18325;52.018;4.726;2023-05-10T10:41:29;9.50;;;5.57;;
31754;SDS011;18325;52.018;4.726;2023-05-10T10:46:58;7.47;;;5.63;;
31754;SDS011;18325;52.018;4.726;2023-05-10T10:49:26;9.57;;;6.23;;
31754;SDS011;18325;52.018;4.726;2023-05-10T10:54:38;7.40;;;5.27;;
31754;SDS011;18325;52.018;4.726;2023-05-10T10:57:12;5.60;;;3.63;;
31754;SDS011;18325;52.018;4.726;2023-05-10T10:59:42;5.70;;;3.20;;
31754;SDS011;18325;52.018;4.726;2023-05-10T11:02:09;6.57;;;4.10;;
31754;SDS011;18325;52.018;4.726;2023-05-10T11:04:42;6.80;;;4.07;;
31754;SDS011;18325;52.018;4.726;2023-05-10T11:07:17;8.77;;;4.20;;
31754;SDS011;18325;52.018;4.726;2023-05-10T11:09:44;5.97;;;3.90;;
31754;SDS011;18325;52.018;4.726;2023-05-10T11:12:12;9.90;;;5.00;;
31754;SDS011;18325;52.018;4.726;2023-05-10T11:14:38;10.07;;;5.50;;
31754;SDS011;18325;52.018;4.726;2023-05-10T11:20:07;8.27;;;5.03;;
31754;SDS011;18325;52.018;4.726;2023-05-10T11:22:48;10.57;;;5.10;;
31754;SDS011;18325;52.018;4.726;2023-05-10T11:25:16;10.67;;;5.13;;
31754;SDS011;18325;52.018;4.726;2023-05-10T11:27:42;8.33;;;4.87;;
31754;SDS011;18325;52.018;4.726;2023-05-10T11:30:09;9.03;;;4.97;;
31754;SDS011;18325;52.018;4.726;2023-05-10T11:32:36;12.07;;;5.03;;
31754;SDS011;18325;52.018;4.726;2023-05-10T11:35:07;9.13;;;4.60;;
31754;SDS011;18325;52.018;4.726;2023-05-10T11:37:34;9.87;;;4.57;;
31754;SDS011;18325;52.018;4.726;2023-05-10T11:40:01;8.53;;;4.70;;
31754;SDS011;18325;52.018;4.726;2023-05-10T11:42:28;8.80;;;4.83;;
31754;SDS011;18325;52.018;4.726;2023-05-10T11:44:55;8.80;;;4.50;;
31754;SDS011;18325;52.018;4.726;2023-05-10T11:47:22;7.53;;;4.33;;
31754;SDS011;18325;52.018;4.726;2023-05-10T11:49:48;8.07;;;4.50;;
31754;SDS011;18325;52.018;4.726;2023-05-10T11:52:16;8.23;;;4.70;;
31754;SDS011;18325;52.018;4.726;2023-05-10T11:54:44;13.17;;;5.30;;
31754;SDS011;18325;52.018;4.726;2023-05-10T11:57:12;15.20;;;6.23;;
31754;SDS011;18325;52.018;4.726;2023-05-10T11:59:39;9.53;;;5.77;;
31754;SDS011;18325;52.018;4.726;2023-05-10T12:02:05;10.33;;;6.00;;
31754;SDS011;18325;52.018;4.726;2023-05-10T12:04:31;13.93;;;6.47;;
31754;SDS011;18325;52.018;4.726;2023-05-10T12:06:58;11.40;;;6.67;;
31754;SDS011;18325;52.018;4.726;2023-05-10T12:09:26;8.73;;;5.47;;
31754;SDS011;18325;52.018;4.726;2023-05-10T12:11:54;8.80;;;5.87;;
31754;SDS011;18325;52.018;4.726;2023-05-10T12:14:21;10.30;;;5.20;;
31754;SDS011;18325;52.018;4.726;2023-05-10T12:16:49;10.73;;;6.10;;
31754;SDS011;18325;52.018;4.726;2023-05-10T12:19:17;10.20;;;6.10;;
31754;SDS011;18325;52.018;4.726;2023-05-10T12:21:44;7.30;;;5.07;;
31754;SDS011;18325;52.018;4.726;2023-05-10T12:24:10;8.27;;;5.57;;
31754;SDS011;18325;52.018;4.726;2023-05-10T12:26:38;10.43;;;6.23;;
31754;SDS011;18325;52.018;4.726;2023-05-10T12:29:11;8.63;;;5.30;;
31754;SDS011;18325;52.018;4.726;2023-05-10T12:31:48;7.43;;;4.67;;
31754;SDS011;18325;52.018;4.726;2023-05-10T12:34:22;10.30;;;5.80;;
31754;SDS011;18325;52.018;4.726;2023-05-10T12:36:50;7.00;;;4.73;;
31754;SDS011;18325;52.018;4.726;2023-05-10T12:39:16;7.27;;;4.77;;
31754;SDS011;18325;52.018;4.726;2023-05-10T12:41:44;13.47;;;5.67;;
31754;SDS011;18325;52.018;4.726;2023-05-10T12:44:10;9.93;;;5.40;;
31754;SDS011;18325;52.018;4.726;2023-05-10T12:46:37;10.50;;;4.93;;
31754;SDS011;18325;52.018;4.726;2023-05-10T12:49:03;6.57;;;4.53;;
31754;SDS011;18325;52.018;4.726;2023-05-10T12:51:30;7.97;;;4.03;;
31754;SDS011;18325;52.018;4.726;2023-05-10T12:53:56;7.43;;;4.83;;
31754;SDS011;18325;52.018;4.726;2023-05-10T12:56:23;7.63;;;4.03;;
31754;SDS011;18325;52.018;4.726;2023-05-10T12:58:50;6.43;;;4.43;;
31754;SDS011;18325;52.018;4.726;2023-05-10T13:01:17;5.80;;;3.40;;
31754;SDS011;18325;52.018;4.726;2023-05-10T13:03:43;6.83;;;4.10;;
31754;SDS011;18325;52.018;4.726;2023-05-10T13:06:10;6.63;;;3.47;;
31754;SDS011;18325;52.018;4.726;2023-05-10T13:08:38;8.30;;;4.53;;
31754;SDS011;18325;52.018;4.726;2023-05-10T13:11:05;7.00;;;3.70;;
31754;SDS011;18325;52.018;4.726;2023-05-10T13:13:31;7.37;;;4.30;;
31754;SDS011;18325;52.018;4.726;2023-05-10T13:15:59;8.17;;;3.73;;
31754;SDS011;18325;52.018;4.726;2023-05-10T13:18:25;5.80;;;4.17;;
31754;SDS011;18325;52.018;4.726;2023-05-10T13:20:53;8.10;;;4.10;;
31754;SDS011;18325;52.018;4.726;2023-05-10T13:23:19;6.13;;;4.47;;
31754;SDS011;18325;52.018;4.726;2023-05-10T13:25:46;8.73;;;4.60;;
31754;SDS011;18325;52.018;4.726;2023-05-10T13:28:12;9.53;;;4.33;;
31754;SDS011;18325;52.018;4.726;2023-05-10T13:30:39;7.83;;;4.33;;
31754;SDS011;18325;52.018;4.726;2023-05-10T13:33:06;6.63;;;4.73;;
31754;SDS011;18325;52.018;4.726;2023-05-10T13:35:33;8.07;;;4.60;;
31754;SDS011;18325;52.018;4.726;2023-05-10T13:37:59;7.83;;;4.83;;
31754;SDS011;18325;52.018;4.726;2023-05-10T13:40:26;8.70;;;4.70;;
31754;SDS011;18325;52.018;4.726;2023-05-10T13:42:53;8.83;;;5.10;;
31754;SDS011;18325;52.018;4.726;2023-05-10T13:45:19;7.23;;;4.93;;
31754;SDS011;18325;52.018;4.726;2023-05-10T13:47:45;9.37;;;5.10;;
31754;SDS011;18325;52.018;4.726;2023-05-10T13:50:13;6.60;;;4.37;;
31754;SDS011;18325;52.018;4.726;2023-05-10T13:52:39;9.90;;;5.23;;
31754;SDS011;18325;52.018;4.726;2023-05-10T13:55:06;9.63;;;5.63;;
31754;SDS011;18325;52.018;4.726;2023-05-10T13:57:33;6.83;;;4.07;;
31754;SDS011;18325;52.018;4.726;2023-05-10T14:00:01;7.80;;;4.17;;
31754;SDS011;18325;52.018;4.726;2023-05-10T14:02:27;6.80;;;4.17;;
31754;SDS011;18325;52.018;4.726;2023-05-10T14:04:54;8.40;;;4.33;;
31754;SDS011;18325;52.018;4.726;2023-05-10T14:07:22;8.33;;;3.53;;
31754;SDS011;18325;52.018;4.726;2023-05-10T14:09:48;6.40;;;4.07;;
31754;SDS011;18325;52.018;4.726;2023-05-10T14:12:14;5.07;;;3.40;;
31754;SDS011;18325;52.018;4.726;2023-05-10T14:14:41;4.90;;;3.70;;
31754;SDS011;18325;52.018;4.726;2023-05-10T14:17:07;5.43;;;3.50;;
31754;SDS011;18325;52.018;4.726;2023-05-10T14:19:34;7.90;;;4.27;;
31754;SDS011;18325;52.018;4.726;2023-05-10T14:22:00;8.30;;;4.17;;
31754;SDS011;18325;52.018;4.726;2023-05-10T14:24:28;7.57;;;4.07;;
31754;SDS011;18325;52.018;4.726;2023-05-10T14:26:54;8.47;;;4.23;;
31754;SDS011;18325;52.018;4.726;2023-05-10T14:29:21;7.10;;;3.33;;
31754;SDS011;18325;52.018;4.726;2023-05-10T14:31:48;7.67;;;3.60;;
31754;SDS011;18325;52.018;4.726;2023-05-10T14:34:14;6.20;;;3.77;;
31754;SDS011;18325;52.018;4.726;2023-05-10T14:36:40;6.57;;;3.93;;
31754;SDS011;18325;52.018;4.726;2023-05-10T14:39:07;6.43;;;4.27;;
31754;SDS011;18325;52.018;4.726;2023-05-10T14:41:36;6.03;;;3.20;;
31754;SDS011;18325;52.018;4.726;2023-05-10T14:44:04;5.00;;;3.40;;
31754;SDS011;18325;52.018;4.726;2023-05-10T14:46:30;4.90;;;3.17;;
31754;SDS011;18325;52.018;4.726;2023-05-10T14:48:57;7.83;;;3.70;;
31754;SDS011;18325;52.018;4.726;2023-05-10T14:51:23;8.83;;;3.10;;